sensor_id;sensor_type;location;lat;lon;timestamp;temperature;humidity
65231;DHT22;51813;40.666;16.602;2023-04-01T00:00:44;18.00;53.20
65231;DHT22;51813;40.666;16.602;2023-04-01T00:03:11;18.00;53.30
65231;DHT22;51813;40.666;16.602;2023-04-01T00:05:37;18.00;53.40
65231;DHT22;51813;40.666;16.602;2023-04-01T00:08:03;18.00;53.20
65231;DHT22;51813;40.666;16.602;2023-04-01T00:10:29;18.00;53.10
65231;DHT22;51813;40.666;16.602;2023-04-01T00:12:54;18.00;53.20
65231;DHT22;51813;40.666;16.602;2023-04-01T00:15:20;18.00;53.40
65231;DHT22;51813;40.666;16.602;2023-04-01T00:17:46;18.00;53.20
65231;DHT22;51813;40.666;16.602;2023-04-01T00:20:12;18.00;53.20
65231;DHT22;51813;40.666;16.602;2023-04-01T00:22:40;18.00;53.20
65231;DHT22;51813;40.666;16.602;2023-04-01T00:25:06;18.00;53.30
65231;DHT22;51813;40.666;16.602;2023-04-01T00:27:32;18.00;53.10
65231;DHT22;51813;40.666;16.602;2023-04-01T00:29:58;18.00;53.20
65231;DHT22;51813;40.666;16.602;2023-04-01T00:32:23;18.00;53.20
65231;DHT22;51813;40.666;16.602;2023-04-01T00:34:52;18.00;53.10
65231;DHT22;51813;40.666;16.602;2023-04-01T00:37:19;18.00;53.20
65231;DHT22;51813;40.666;16.602;2023-04-01T00:39:44;18.00;53.10
65231;DHT22;51813;40.666;16.602;2023-04-01T00:42:11;17.90;53.10
65231;DHT22;51813;40.666;16.602;2023-04-01T00:44:37;17.90;53.10
65231;DHT22;51813;40.666;16.602;2023-04-01T00:47:03;17.90;53.00
65231;DHT22;51813;40.666;16.602;2023-04-01T00:49:45;17.90;53.00
65231;DHT22;51813;40.666;16.602;2023-04-01T00:52:15;17.90;53.10
65231;DHT22;51813;40.666;16.602;2023-04-01T00:54:44;17.90;53.00
65231;DHT22;51813;40.666;16.602;2023-04-01T00:57:37;17.90;53.10
65231;DHT22;51813;40.666;16.602;2023-04-01T01:00:06;18.00;53.10
65231;DHT22;51813;40.666;16.602;2023-04-01T01:02:35;17.90;53.00
65231;DHT22;51813;40.666;16.602;2023-04-01T01:05:01;17.90;53.00
65231;DHT22;51813;40.666;16.602;2023-04-01T01:10:33;17.90;52.90
65231;DHT22;51813;40.666;16.602;2023-04-01T01:13:09;17.90;52.90
65231;DHT22;51813;40.666;16.602;2023-04-01T01:18:27;17.90;53.00
65231;DHT22;51813;40.666;16.602;2023-04-01T01:23:47;17.90;52.20
65231;DHT22;51813;40.666;16.602;2023-04-01T01:37:17;17.80;52.70
65231;DHT22;51813;40.666;16.602;2023-04-01T01:39:47;17.90;52.80
65231;DHT22;51813;40.666;16.602;2023-04-01T01:42:16;17.90;52.80
65231;DHT22;51813;40.666;16.602;2023-04-01T01:44:46;17.80;52.60
65231;DHT22;51813;40.666;16.602;2023-04-01T01:47:13;17.90;52.80
65231;DHT22;51813;40.666;16.602;2023-04-01T01:49:41;17.80;52.80
65231;DHT22;51813;40.666;16.602;2023-04-01T01:52:07;17.80;52.80
65231;DHT22;51813;40.666;16.602;2023-04-01T01:54:33;17.90;52.90
65231;DHT22;51813;40.666;16.602;2023-04-01T01:57:06;17.80;53.50
65231;DHT22;51813;40.666;16.602;2023-04-01T01:59:35;17.90;52.90
65231;DHT22;51813;40.666;16.602;2023-04-01T02:02:03;17.90;52.90
65231;DHT22;51813;40.666;16.602;2023-04-01T02:04:35;17.90;52.80
65231;DHT22;51813;40.666;16.602;2023-04-01T02:07:04;17.80;52.70
65231;DHT22;51813;40.666;16.602;2023-04-01T02:09:32;17.80;52.70
65231;DHT22;51813;40.666;16.602;2023-04-01T02:12:06;17.80;52.70
65231;DHT22;51813;40.666;16.602;2023-04-01T02:14:52;17.80;52.80
65231;DHT22;51813;40.666;16.602;2023-04-01T02:17:21;17.90;52.90
65231;DHT22;51813;40.666;16.602;2023-04-01T02:19:51;17.90;52.80
65231;DHT22;51813;40.666;16.602;2023-04-01T02:22:22;17.90;52.80
65231;DHT22;51813;40.666;16.602;2023-04-01T02:24:50;17.90;52.90
65231;DHT22;51813;40.666;16.602;2023-04-01T02:27:18;17.80;52.70
65231;DHT22;51813;40.666;16.602;2023-04-01T02:29:44;17.90;52.80
65231;DHT22;51813;40.666;16.602;2023-04-01T02:32:10;17.90;52.90
65231;DHT22;51813;40.666;16.602;2023-04-01T02:34:36;17.90;52.90
65231;DHT22;51813;40.666;16.602;2023-04-01T02:37:02;17.90;52.70
65231;DHT22;51813;40.666;16.602;2023-04-01T02:39:28;17.80;52.70
65231;DHT22;51813;40.666;16.602;2023-04-01T02:41:53;17.90;53.00
65231;DHT22;51813;40.666;16.602;2023-04-01T02:44:19;17.90;52.90
65231;DHT22;51813;40.666;16.602;2023-04-01T02:46:45;17.90;52.90
65231;DHT22;51813;40.666;16.602;2023-04-01T02:49:11;17.90;52.90
65231;DHT22;51813;40.666;16.602;2023-04-01T02:51:37;17.90;52.90
65231;DHT22;51813;40.666;16.602;2023-04-01T02:54:03;17.90;52.80
65231;DHT22;51813;40.666;16.602;2023-04-01T02:56:29;17.90;52.80
65231;DHT22;51813;40.666;16.602;2023-04-01T02:58:55;17.90;52.90
65231;DHT22;51813;40.666;16.602;2023-04-01T03:01:21;17.90;53.50
65231;DHT22;51813;40.666;16.602;2023-04-01T03:03:47;17.90;52.80
65231;DHT22;51813;40.666;16.602;2023-04-01T03:06:14;17.80;52.80
65231;DHT22;51813;40.666;16.602;2023-04-01T03:08:41;17.90;52.80
65231;DHT22;51813;40.666;16.602;2023-04-01T03:11:08;17.80;52.80
65231;DHT22;51813;40.666;16.602;2023-04-01T03:13:34;17.90;52.80
65231;DHT22;51813;40.666;16.602;2023-04-01T03:16:00;17.90;52.90
65231;DHT22;51813;40.666;16.602;2023-04-01T03:18:26;17.90;52.90
65231;DHT22;51813;40.666;16.602;2023-04-01T03:20:52;17.90;52.90
65231;DHT22;51813;40.666;16.602;2023-04-01T03:23:17;17.90;52.90
65231;DHT22;51813;40.666;16.602;2023-04-01T03:25:45;17.90;52.90
65231;DHT22;51813;40.666;16.602;2023-04-01T03:28:10;17.90;52.90
65231;DHT22;51813;40.666;16.602;2023-04-01T03:30:37;17.90;53.00
65231;DHT22;51813;40.666;16.602;2023-04-01T03:33:03;17.90;52.90
65231;DHT22;51813;40.666;16.602;2023-04-01T03:35:29;17.90;52.90
65231;DHT22;51813;40.666;16.602;2023-04-01T03:37:54;17.80;52.80
65231;DHT22;51813;40.666;16.602;2023-04-01T03:40:21;17.90;53.00
65231;DHT22;51813;40.666;16.602;2023-04-01T03:42:47;17.90;52.90
65231;DHT22;51813;40.666;16.602;2023-04-01T03:45:13;17.80;52.90
65231;DHT22;51813;40.666;16.602;2023-04-01T03:47:39;17.80;53.00
65231;DHT22;51813;40.666;16.602;2023-04-01T03:50:06;17.80;52.90
65231;DHT22;51813;40.666;16.602;2023-04-01T03:52:32;17.80;52.90
65231;DHT22;51813;40.666;16.602;2023-04-01T03:54:58;17.80;52.80
65231;DHT22;51813;40.666;16.602;2023-04-01T03:57:24;17.80;52.90
65231;DHT22;51813;40.666;16.602;2023-04-01T03:59:50;17.80;52.90
65231;DHT22;51813;40.666;16.602;2023-04-01T04:02:16;17.90;53.00
65231;DHT22;51813;40.666;16.602;2023-04-01T04:04:41;17.80;53.20
65231;DHT22;51813;40.666;16.602;2023-04-01T04:07:08;17.80;53.00
65231;DHT22;51813;40.666;16.602;2023-04-01T04:09:33;17.80;53.00
65231;DHT22;51813;40.666;16.602;2023-04-01T04:12:00;17.80;52.90
65231;DHT22;51813;40.666;16.602;2023-04-01T04:14:26;17.80;53.00
65231;DHT22;51813;40.666;16.602;2023-04-01T04:16:51;17.80;53.00
65231;DHT22;51813;40.666;16.602;2023-04-01T04:19:17;17.80;53.10
65231;DHT22;51813;40.666;16.602;2023-04-01T04:21:43;17.80;53.10
65231;DHT22;51813;40.666;16.602;2023-04-01T04:24:09;17.80;53.20
65231;DHT22;51813;40.666;16.602;2023-04-01T04:26:35;17.80;53.20
65231;DHT22;51813;40.666;16.602;2023-04-01T04:29:01;17.80;53.20
65231;DHT22;51813;40.666;16.602;2023-04-01T04:31:27;17.80;53.10
65231;DHT22;51813;40.666;16.602;2023-04-01T04:33:54;17.80;53.20
65231;DHT22;51813;40.666;16.602;2023-04-01T04:36:20;17.80;53.20
65231;DHT22;51813;40.666;16.602;2023-04-01T04:38:46;17.80;53.20
65231;DHT22;51813;40.666;16.602;2023-04-01T04:41:14;17.80;53.20
65231;DHT22;51813;40.666;16.602;2023-04-01T04:43:41;17.80;53.40
65231;DHT22;51813;40.666;16.602;2023-04-01T04:46:08;17.80;53.30
65231;DHT22;51813;40.666;16.602;2023-04-01T04:48:35;17.80;53.30
65231;DHT22;51813;40.666;16.602;2023-04-01T04:51:01;17.80;53.30
65231;DHT22;51813;40.666;16.602;2023-04-01T04:53:27;17.80;53.30
65231;DHT22;51813;40.666;16.602;2023-04-01T04:55:53;17.80;53.30
65231;DHT22;51813;40.666;16.602;2023-04-01T04:58:19;17.80;53.40
65231;DHT22;51813;40.666;16.602;2023-04-01T05:00:45;17.80;53.40
65231;DHT22;51813;40.666;16.602;2023-04-01T05:03:12;17.80;53.40
65231;DHT22;51813;40.666;16.602;2023-04-01T05:05:38;17.80;54.10
65231;DHT22;51813;40.666;16.602;2023-04-01T05:08:03;17.80;53.40
65231;DHT22;51813;40.666;16.602;2023-04-01T05:10:29;17.80;53.40
65231;DHT22;51813;40.666;16.602;2023-04-01T05:12:56;17.80;53.40
65231;DHT22;51813;40.666;16.602;2023-04-01T05:15:21;17.80;53.50
65231;DHT22;51813;40.666;16.602;2023-04-01T05:17:47;17.80;53.50
65231;DHT22;51813;40.666;16.602;2023-04-01T05:20:13;17.80;53.50
65231;DHT22;51813;40.666;16.602;2023-04-01T05:22:40;17.80;53.50
65231;DHT22;51813;40.666;16.602;2023-04-01T05:25:06;17.80;53.40
65231;DHT22;51813;40.666;16.602;2023-04-01T05:27:32;17.80;53.60
65231;DHT22;51813;40.666;16.602;2023-04-01T05:29:58;17.80;53.50
65231;DHT22;51813;40.666;16.602;2023-04-01T05:32:24;17.80;53.40
65231;DHT22;51813;40.666;16.602;2023-04-01T05:34:53;17.80;53.50
65231;DHT22;51813;40.666;16.602;2023-04-01T05:37:19;17.80;53.50
65231;DHT22;51813;40.666;16.602;2023-04-01T05:39:45;17.80;53.60
65231;DHT22;51813;40.666;16.602;2023-04-01T05:42:11;17.80;53.50
65231;DHT22;51813;40.666;16.602;2023-04-01T05:44:37;17.80;53.50
65231;DHT22;51813;40.666;16.602;2023-04-01T05:47:04;17.80;53.50
65231;DHT22;51813;40.666;16.602;2023-04-01T05:49:30;17.80;53.50
65231;DHT22;51813;40.666;16.602;2023-04-01T05:51:56;17.80;53.50
65231;DHT22;51813;40.666;16.602;2023-04-01T05:54:22;17.80;53.60
65231;DHT22;51813;40.666;16.602;2023-04-01T05:56:48;17.80;53.60
65231;DHT22;51813;40.666;16.602;2023-04-01T05:59:14;17.80;53.50
65231;DHT22;51813;40.666;16.602;2023-04-01T06:01:40;17.80;53.60
65231;DHT22;51813;40.666;16.602;2023-04-01T06:04:06;17.80;53.60
65231;DHT22;51813;40.666;16.602;2023-04-01T06:06:32;17.80;53.60
65231;DHT22;51813;40.666;16.602;2023-04-01T06:09:07;17.80;53.60
65231;DHT22;51813;40.666;16.602;2023-04-01T06:16:57;17.80;53.50
65231;DHT22;51813;40.666;16.602;2023-04-01T06:19:47;17.80;53.50
65231;DHT22;51813;40.666;16.602;2023-04-01T06:30:42;17.80;53.60
65231;DHT22;51813;40.666;16.602;2023-04-01T06:36:14;17.90;53.60
65231;DHT22;51813;40.666;16.602;2023-04-01T06:53:21;17.90;53.80
65231;DHT22;51813;40.666;16.602;2023-04-01T06:55:57;17.90;54.00
65231;DHT22;51813;40.666;16.602;2023-04-01T06:58:28;17.90;54.10
65231;DHT22;51813;40.666;16.602;2023-04-01T07:00:56;17.90;54.50
65231;DHT22;51813;40.666;16.602;2023-04-01T07:03:43;17.90;54.40
65231;DHT22;51813;40.666;16.602;2023-04-01T07:08:49;17.90;54.40
65231;DHT22;51813;40.666;16.602;2023-04-01T07:11:25;18.00;54.60
65231;DHT22;51813;40.666;16.602;2023-04-01T07:14:05;18.00;55.20
65231;DHT22;51813;40.666;16.602;2023-04-01T07:16:45;18.00;54.30
65231;DHT22;51813;40.666;16.602;2023-04-01T07:19:21;18.00;54.20
65231;DHT22;51813;40.666;16.602;2023-04-01T07:24:44;18.00;53.90
65231;DHT22;51813;40.666;16.602;2023-04-01T07:27:12;18.00;54.70
65231;DHT22;51813;40.666;16.602;2023-04-01T07:29:38;18.00;54.00
65231;DHT22;51813;40.666;16.602;2023-04-01T07:37:42;18.00;53.90
65231;DHT22;51813;40.666;16.602;2023-04-01T07:40:37;18.00;54.00
65231;DHT22;51813;40.666;16.602;2023-04-01T07:51:32;17.90;54.00
65231;DHT22;51813;40.666;16.602;2023-04-01T07:54:16;17.90;53.70
65231;DHT22;51813;40.666;16.602;2023-04-01T07:56:54;17.90;54.00
65231;DHT22;51813;40.666;16.602;2023-04-01T08:16:12;17.90;53.90
65231;DHT22;51813;40.666;16.602;2023-04-01T08:21:32;17.90;53.60
65231;DHT22;51813;40.666;16.602;2023-04-01T08:26:42;18.00;53.40
65231;DHT22;51813;40.666;16.602;2023-04-01T08:32:08;17.90;53.30
65231;DHT22;51813;40.666;16.602;2023-04-01T08:34:37;17.90;53.30
65231;DHT22;51813;40.666;16.602;2023-04-01T08:37:19;17.90;52.90
65231;DHT22;51813;40.666;16.602;2023-04-01T08:39:56;17.90;53.10
65231;DHT22;51813;40.666;16.602;2023-04-01T09:02:05;18.00;51.60
65231;DHT22;51813;40.666;16.602;2023-04-01T09:05:07;18.00;51.10
65231;DHT22;51813;40.666;16.602;2023-04-01T09:16:01;18.10;50.40
65231;DHT22;51813;40.666;16.602;2023-04-01T09:36:04;19.20;47.00
65231;DHT22;51813;40.666;16.602;2023-04-01T09:38:57;19.30;46.60
65231;DHT22;51813;40.666;16.602;2023-04-01T09:41:32;19.40;46.40
65231;DHT22;51813;40.666;16.602;2023-04-01T09:44:26;19.50;45.80
65231;DHT22;51813;40.666;16.602;2023-04-01T11:12:14;20.30;41.80
65231;DHT22;51813;40.666;16.602;2023-04-01T11:29:01;20.50;42.60
65231;DHT22;51813;40.666;16.602;2023-04-01T11:42:33;20.50;42.20
65231;DHT22;51813;40.666;16.602;2023-04-01T12:10:46;20.70;41.30
65231;DHT22;51813;40.666;16.602;2023-04-01T12:16:11;20.70;41.50
65231;DHT22;51813;40.666;16.602;2023-04-01T12:40:40;20.60;42.40
65231;DHT22;51813;40.666;16.602;2023-04-01T12:51:42;20.70;42.00
65231;DHT22;51813;40.666;16.602;2023-04-01T12:54:25;20.80;41.30
65231;DHT22;51813;40.666;16.602;2023-04-01T13:10:58;20.90;41.30
65231;DHT22;51813;40.666;16.602;2023-04-01T13:13:44;20.90;41.10
65231;DHT22;51813;40.666;16.602;2023-04-01T13:16:19;20.90;41.30
65231;DHT22;51813;40.666;16.602;2023-04-01T13:19:13;20.90;41.50
65231;DHT22;51813;40.666;16.602;2023-04-01T13:25:06;21.00;40.80
65231;DHT22;51813;40.666;16.602;2023-04-01T13:27:41;21.00;40.80
65231;DHT22;51813;40.666;16.602;2023-04-01T13:33:09;21.00;40.70
65231;DHT22;51813;40.666;16.602;2023-04-01T13:35:49;21.00;40.50
65231;DHT22;51813;40.666;16.602;2023-04-01T13:43:49;21.10;40.60
65231;DHT22;51813;40.666;16.602;2023-04-01T13:51:29;21.20;40.80
65231;DHT22;51813;40.666;16.602;2023-04-01T14:02:29;21.10;40.80
65231;DHT22;51813;40.666;16.602;2023-04-01T14:08:23;21.10;42.10
65231;DHT22;51813;40.666;16.602;2023-04-01T14:17:06;21.00;40.50
65231;DHT22;51813;40.666;16.602;2023-04-01T14:31:32;21.10;38.00
65231;DHT22;51813;40.666;16.602;2023-04-01T14:39:26;20.90;37.30
65231;DHT22;51813;40.666;16.602;2023-04-01T14:47:54;20.70;36.50
65231;DHT22;51813;40.666;16.602;2023-04-01T14:50:30;20.70;37.80
65231;DHT22;51813;40.666;16.602;2023-04-01T14:55:58;20.80;37.40
65231;DHT22;51813;40.666;16.602;2023-04-01T14:58:41;20.80;38.10
65231;DHT22;51813;40.666;16.602;2023-04-01T15:01:25;20.80;37.30
65231;DHT22;51813;40.666;16.602;2023-04-01T15:07:02;20.80;37.60
65231;DHT22;51813;40.666;16.602;2023-04-01T15:15:02;21.20;37.00
65231;DHT22;51813;40.666;16.602;2023-04-01T15:17:53;21.20;37.10
65231;DHT22;51813;40.666;16.602;2023-04-01T15:31:22;21.70;35.70
65231;DHT22;51813;40.666;16.602;2023-04-01T15:37:27;21.80;36.50
65231;DHT22;51813;40.666;16.602;2023-04-01T15:40:20;21.80;36.10
65231;DHT22;51813;40.666;16.602;2023-04-01T15:45:35;21.80;36.10
65231;DHT22;51813;40.666;16.602;2023-04-01T15:53:44;22.00;36.00
65231;DHT22;51813;40.666;16.602;2023-04-01T16:15:29;21.00;38.10
65231;DHT22;51813;40.666;16.602;2023-04-01T16:20:44;20.90;38.50
65231;DHT22;51813;40.666;16.602;2023-04-01T16:35:04;20.30;38.00
65231;DHT22;51813;40.666;16.602;2023-04-01T16:42:52;20.10;39.50
65231;DHT22;51813;40.666;16.602;2023-04-01T16:45:33;20.00;39.10
65231;DHT22;51813;40.666;16.602;2023-04-01T16:53:48;19.90;41.60
65231;DHT22;51813;40.666;16.602;2023-04-01T16:56:25;19.80;42.30
65231;DHT22;51813;40.666;16.602;2023-04-01T17:04:32;19.70;43.70
65231;DHT22;51813;40.666;16.602;2023-04-01T17:07:10;19.70;44.10
65231;DHT22;51813;40.666;16.602;2023-04-01T17:15:04;19.40;44.90
65231;DHT22;51813;40.666;16.602;2023-04-01T17:17:58;19.40;45.50
65231;DHT22;51813;40.666;16.602;2023-04-01T17:20:34;19.40;45.50
65231;DHT22;51813;40.666;16.602;2023-04-01T17:23:12;19.30;45.70
65231;DHT22;51813;40.666;16.602;2023-04-01T17:34:24;19.20;46.40
65231;DHT22;51813;40.666;16.602;2023-04-01T17:37:12;19.20;46.50
65231;DHT22;51813;40.666;16.602;2023-04-01T17:42:46;19.20;46.70
65231;DHT22;51813;40.666;16.602;2023-04-01T17:45:24;19.20;47.00
65231;DHT22;51813;40.666;16.602;2023-04-01T18:23:27;19.00;48.10
65231;DHT22;51813;40.666;16.602;2023-04-01T18:26:06;19.00;48.10
65231;DHT22;51813;40.666;16.602;2023-04-01T18:29:23;18.90;48.10
65231;DHT22;51813;40.666;16.602;2023-04-01T18:31:36;18.90;47.90
65231;DHT22;51813;40.666;16.602;2023-04-01T18:34:17;18.90;47.90
65231;DHT22;51813;40.666;16.602;2023-04-01T18:44:56;18.80;48.10
65231;DHT22;51813;40.666;16.602;2023-04-01T18:50:28;18.80;48.30
65231;DHT22;51813;40.666;16.602;2023-04-01T18:53:31;18.90;48.30
65231;DHT22;51813;40.666;16.602;2023-04-01T18:56:06;18.90;48.40
65231;DHT22;51813;40.666;16.602;2023-04-01T19:06:55;18.80;48.50
65231;DHT22;51813;40.666;16.602;2023-04-01T19:09:24;18.80;48.50
65231;DHT22;51813;40.666;16.602;2023-04-01T19:20:23;18.90;48.80
65231;DHT22;51813;40.666;16.602;2023-04-01T19:23:46;18.80;48.80
65231;DHT22;51813;40.666;16.602;2023-04-01T19:25:51;18.80;48.80
65231;DHT22;51813;40.666;16.602;2023-04-01T19:45:26;18.80;48.70
65231;DHT22;51813;40.666;16.602;2023-04-01T19:50:59;18.80;48.60
65231;DHT22;51813;40.666;16.602;2023-04-01T19:53:33;18.80;48.60
65231;DHT22;51813;40.666;16.602;2023-04-01T19:56:17;18.80;48.50
65231;DHT22;51813;40.666;16.602;2023-04-01T20:04:34;18.70;48.20
65231;DHT22;51813;40.666;16.602;2023-04-01T20:14:57;18.70;47.70
65231;DHT22;51813;40.666;16.602;2023-04-01T20:17:43;18.70;47.80
65231;DHT22;51813;40.666;16.602;2023-04-01T20:50:27;18.50;47.70
65231;DHT22;51813;40.666;16.602;2023-04-01T21:04:25;18.60;47.70
65231;DHT22;51813;40.666;16.602;2023-04-01T21:07:20;18.60;47.50
65231;DHT22;51813;40.666;16.602;2023-04-01T21:12:35;18.60;47.50
65231;DHT22;51813;40.666;16.602;2023-04-01T21:17:59;18.60;47.70
65231;DHT22;51813;40.666;16.602;2023-04-01T21:21:10;18.50;47.50
65231;DHT22;51813;40.666;16.602;2023-04-01T21:26:37;18.60;47.60
65231;DHT22;51813;40.666;16.602;2023-04-01T21:34:45;18.60;47.50
65231;DHT22;51813;40.666;16.602;2023-04-01T21:51:08;18.50;47.50
65231;DHT22;51813;40.666;16.602;2023-04-01T21:54:16;18.50;47.40
65231;DHT22;51813;40.666;16.602;2023-04-01T22:03:08;18.50;47.30
65231;DHT22;51813;40.666;16.602;2023-04-01T22:11:08;18.50;46.60
65231;DHT22;51813;40.666;16.602;2023-04-01T22:17:03;18.50;47.30
65231;DHT22;51813;40.666;16.602;2023-04-01T22:19:46;18.50;47.20
65231;DHT22;51813;40.666;16.602;2023-04-01T22:22:31;18.50;47.40
65231;DHT22;51813;40.666;16.602;2023-04-01T22:25:14;18.50;47.20
65231;DHT22;51813;40.666;16.602;2023-04-01T22:30:15;18.40;47.40
65231;DHT22;51813;40.666;16.602;2023-04-01T22:32:52;18.40;47.40
65231;DHT22;51813;40.666;16.602;2023-04-01T22:35:30;18.50;47.40
65231;DHT22;51813;40.666;16.602;2023-04-01T22:43:42;18.50;46.60
65231;DHT22;51813;40.666;16.602;2023-04-01T22:46:13;18.40;47.40
65231;DHT22;51813;40.666;16.602;2023-04-01T22:48:46;18.40;47.40
65231;DHT22;51813;40.666;16.602;2023-04-01T22:51:24;18.40;47.40
65231;DHT22;51813;40.666;16.602;2023-04-01T22:54:04;18.40;47.30
65231;DHT22;51813;40.666;16.602;2023-04-01T22:57:32;18.40;46.60
65231;DHT22;51813;40.666;16.602;2023-04-01T23:02:02;18.40;47.40
65231;DHT22;51813;40.666;16.602;2023-04-01T23:04:39;18.30;46.40
65231;DHT22;51813;40.666;16.602;2023-04-01T23:07:36;18.20;47.50
65231;DHT22;51813;40.666;16.602;2023-04-01T23:13:02;18.20;46.90
65231;DHT22;51813;40.666;16.602;2023-04-01T23:15:29;18.20;48.00
65231;DHT22;51813;40.666;16.602;2023-04-01T23:18:14;18.30;47.80
65231;DHT22;51813;40.666;16.602;2023-04-01T23:21:03;18.40;47.70
65231;DHT22;51813;40.666;16.602;2023-04-01T23:26:32;18.40;47.50
65231;DHT22;51813;40.666;16.602;2023-04-01T23:29:00;18.20;47.50
65231;DHT22;51813;40.666;16.602;2023-04-01T23:31:38;18.30;47.90
65231;DHT22;51813;40.666;16.602;2023-04-01T23:36:46;18.30;47.90
65231;DHT22;51813;40.666;16.602;2023-04-01T23:39:37;18.30;47.80
65231;DHT22;51813;40.666;16.602;2023-04-01T23:42:13;18.30;47.20
65231;DHT22;51813;40.666;16.602;2023-04-01T23:44:40;18.30;47.50
65231;DHT22;51813;40.666;16.602;2023-04-01T23:47:12;18.30;47.60
65231;DHT22;51813;40.666;16.602;2023-04-01T23:49:43;18.30;47.00
65231;DHT22;51813;40.666;16.602;2023-04-01T23:54:50;18.40;47.60
65231;DHT22;51813;40.666;16.602;2023-04-01T23:57:29;18.30;47.10
